sensor_id;sensor_type;location;lat;lon;timestamp;temperature;humidity
79059;SHT31;68456;51.986;5.692;2023-05-07T10:50:24;22.1;57.4
79059;SHT31;68456;51.986;5.692;2023-05-07T10:53:35;22.0;59.0
79059;SHT31;68456;51.986;5.692;2023-05-07T10:56:26;22.0;59.5
79059;SHT31;68456;51.986;5.692;2023-05-07T10:58:56;22.0;58.5
79059;SHT31;68456;51.986;5.692;2023-05-07T11:01:52;22.0;59.2
79059;SHT31;68456;51.986;5.692;2023-05-07T11:04:22;22.0;57.8
79059;SHT31;68456;51.986;5.692;2023-05-07T11:09:12;22.0;57.4
79059;SHT31;68456;51.986;5.692;2023-05-07T11:11:49;21.9;57.5
79059;SHT31;68456;51.986;5.692;2023-05-07T11:14:46;21.9;57.0
79059;SHT31;68456;51.986;5.692;2023-05-07T11:17:16;21.9;56.6
79059;SHT31;68456;51.986;5.692;2023-05-07T11:19:52;21.9;57.0
79059;SHT31;68456;51.986;5.692;2023-05-07T11:22:38;21.9;58.7
79059;SHT31;68456;51.986;5.692;2023-05-07T11:25:08;21.9;59.3
79059;SHT31;68456;51.986;5.692;2023-05-07T11:27:37;21.9;58.5
79059;SHT31;68456;51.986;5.692;2023-05-07T11:30:07;21.9;57.5
79059;SHT31;68456;51.986;5.692;2023-05-07T11:32:37;21.9;57.3
79059;SHT31;68456;51.986;5.692;2023-05-07T11:35:07;21.9;59.1
79059;SHT31;68456;51.986;5.692;2023-05-07T11:37:37;21.9;58.4
79059;SHT31;68456;51.986;5.692;2023-05-07T11:40:09;21.9;58.2
79059;SHT31;68456;51.986;5.692;2023-05-07T11:42:40;21.9;59.7
79059;SHT31;68456;51.986;5.692;2023-05-07T11:45:10;21.9;58.3
79059;SHT31;68456;51.986;5.692;2023-05-07T11:47:41;21.9;57.7
79059;SHT31;68456;51.986;5.692;2023-05-07T11:50:10;21.9;58.6
79059;SHT31;68456;51.986;5.692;2023-05-07T11:52:39;22.0;60.5
79059;SHT31;68456;51.986;5.692;2023-05-07T11:55:08;22.0;60.0
79059;SHT31;68456;51.986;5.692;2023-05-07T11:57:37;22.0;59.7
79059;SHT31;68456;51.986;5.692;2023-05-07T12:00:06;22.0;58.8
79059;SHT31;68456;51.986;5.692;2023-05-07T12:02:37;22.1;58.1
79059;SHT31;68456;51.986;5.692;2023-05-07T12:05:06;22.1;58.8
79059;SHT31;68456;51.986;5.692;2023-05-07T12:07:36;22.1;59.2
79059;SHT31;68456;51.986;5.692;2023-05-07T12:10:06;22.1;58.4
79059;SHT31;68456;51.986;5.692;2023-05-07T12:12:40;22.1;57.1
79059;SHT31;68456;51.986;5.692;2023-05-07T12:15:10;22.1;56.0
79059;SHT31;68456;51.986;5.692;2023-05-07T12:17:40;22.2;56.4
79059;SHT31;68456;51.986;5.692;2023-05-07T12:20:09;22.2;57.8
79059;SHT31;68456;51.986;5.692;2023-05-07T12:22:38;22.2;58.7
79059;SHT31;68456;51.986;5.692;2023-05-07T12:25:08;22.2;58.0
79059;SHT31;68456;51.986;5.692;2023-05-07T12:27:40;22.3;57.8
79059;SHT31;68456;51.986;5.692;2023-05-07T12:30:11;22.3;59.3
79059;SHT31;68456;51.986;5.692;2023-05-07T12:32:40;22.3;57.0
79059;SHT31;68456;51.986;5.692;2023-05-07T12:35:09;22.3;57.0
79059;SHT31;68456;51.986;5.692;2023-05-07T12:37:38;22.4;57.0
79059;SHT31;68456;51.986;5.692;2023-05-07T12:40:09;22.4;57.2
79059;SHT31;68456;51.986;5.692;2023-05-07T12:42:40;22.5;56.8
79059;SHT31;68456;51.986;5.692;2023-05-07T12:45:13;22.5;57.0
79059;SHT31;68456;51.986;5.692;2023-05-07T12:47:45;22.5;57.0
79059;SHT31;68456;51.986;5.692;2023-05-07T12:50:15;22.6;57.5
79059;SHT31;68456;51.986;5.692;2023-05-07T12:52:45;22.6;57.8
79059;SHT31;68456;51.986;5.692;2023-05-07T12:55:16;22.7;57.4
79059;SHT31;68456;51.986;5.692;2023-05-07T12:57:48;22.7;57.0
79059;SHT31;68456;51.986;5.692;2023-05-07T13:00:18;22.8;57.4
79059;SHT31;68456;51.986;5.692;2023-05-07T13:02:56;22.9;53.9
79059;SHT31;68456;51.986;5.692;2023-05-07T13:05:27;22.9;54.2
79059;SHT31;68456;51.986;5.692;2023-05-07T13:07:56;23.0;52.9
79059;SHT31;68456;51.986;5.692;2023-05-07T13:10:27;23.0;53.3
79059;SHT31;68456;51.986;5.692;2023-05-07T13:12:56;23.1;54.0
79059;SHT31;68456;51.986;5.692;2023-05-07T13:15:27;23.1;53.3
79059;SHT31;68456;51.986;5.692;2023-05-07T13:17:56;23.1;52.6
79059;SHT31;68456;51.986;5.692;2023-05-07T13:20:24;23.1;53.2
79059;SHT31;68456;51.986;5.692;2023-05-07T13:22:53;23.2;52.4
79059;SHT31;68456;51.986;5.692;2023-05-07T13:25:22;23.2;53.2
79059;SHT31;68456;51.986;5.692;2023-05-07T13:27:50;23.2;54.1
79059;SHT31;68456;51.986;5.692;2023-05-07T13:30:19;23.2;53.7
79059;SHT31;68456;51.986;5.692;2023-05-07T13:32:47;23.2;54.6
79059;SHT31;68456;51.986;5.692;2023-05-07T13:35:16;23.3;52.0
79059;SHT31;68456;51.986;5.692;2023-05-07T13:37:45;23.3;50.7
79059;SHT31;68456;51.986;5.692;2023-05-07T13:40:15;23.3;51.7
79059;SHT31;68456;51.986;5.692;2023-05-07T13:42:43;23.3;52.3
79059;SHT31;68456;51.986;5.692;2023-05-07T13:45:14;23.4;53.3
79059;SHT31;68456;51.986;5.692;2023-05-07T13:47:43;23.4;52.9
79059;SHT31;68456;51.986;5.692;2023-05-07T13:50:13;23.4;53.7
79059;SHT31;68456;51.986;5.692;2023-05-07T13:52:44;23.4;52.5
79059;SHT31;68456;51.986;5.692;2023-05-07T13:55:17;23.4;53.9
79059;SHT31;68456;51.986;5.692;2023-05-07T13:57:46;23.5;53.6
79059;SHT31;68456;51.986;5.692;2023-05-07T14:00:15;23.5;51.9
79059;SHT31;68456;51.986;5.692;2023-05-07T14:02:44;23.5;52.5
79059;SHT31;68456;51.986;5.692;2023-05-07T14:05:13;23.5;52.3
79059;SHT31;68456;51.986;5.692;2023-05-07T14:07:41;23.6;52.5
79059;SHT31;68456;51.986;5.692;2023-05-07T14:10:11;23.6;52.3
79059;SHT31;68456;51.986;5.692;2023-05-07T14:12:41;23.6;51.6
79059;SHT31;68456;51.986;5.692;2023-05-07T14:15:12;23.6;51.5
79059;SHT31;68456;51.986;5.692;2023-05-07T14:17:42;23.6;52.0
79059;SHT31;68456;51.986;5.692;2023-05-07T14:20:12;23.6;52.0
79059;SHT31;68456;51.986;5.692;2023-05-07T14:22:41;23.6;52.3
79059;SHT31;68456;51.986;5.692;2023-05-07T14:25:12;23.7;52.1
79059;SHT31;68456;51.986;5.692;2023-05-07T14:27:41;23.7;52.7
79059;SHT31;68456;51.986;5.692;2023-05-07T14:30:13;23.7;52.0
79059;SHT31;68456;51.986;5.692;2023-05-07T14:32:43;23.7;53.4
79059;SHT31;68456;51.986;5.692;2023-05-07T14:35:11;23.7;52.6
79059;SHT31;68456;51.986;5.692;2023-05-07T14:37:40;23.7;52.7
79059;SHT31;68456;51.986;5.692;2023-05-07T14:40:10;23.7;52.7
79059;SHT31;68456;51.986;5.692;2023-05-07T14:42:39;23.7;53.2
79059;SHT31;68456;51.986;5.692;2023-05-07T14:45:09;23.7;53.2
79059;SHT31;68456;51.986;5.692;2023-05-07T14:47:38;23.7;53.5
79059;SHT31;68456;51.986;5.692;2023-05-07T14:50:07;23.7;53.6
79059;SHT31;68456;51.986;5.692;2023-05-07T14:52:36;23.7;53.3
79059;SHT31;68456;51.986;5.692;2023-05-07T14:55:05;23.8;52.0
79059;SHT31;68456;51.986;5.692;2023-05-07T14:57:35;23.8;52.6
79059;SHT31;68456;51.986;5.692;2023-05-07T15:00:05;23.8;52.6
79059;SHT31;68456;51.986;5.692;2023-05-07T15:02:36;23.8;51.4
79059;SHT31;68456;51.986;5.692;2023-05-07T15:05:05;23.8;52.4
79059;SHT31;68456;51.986;5.692;2023-05-07T15:07:34;23.8;52.5
79059;SHT31;68456;51.986;5.692;2023-05-07T15:10:03;23.8;52.5
79059;SHT31;68456;51.986;5.692;2023-05-07T15:12:32;23.8;52.8
79059;SHT31;68456;51.986;5.692;2023-05-07T15:15:01;23.8;53.4
79059;SHT31;68456;51.986;5.692;2023-05-07T15:17:32;23.8;52.1
79059;SHT31;68456;51.986;5.692;2023-05-07T15:20:03;23.8;52.6
79059;SHT31;68456;51.986;5.692;2023-05-07T15:22:32;23.8;52.5
79059;SHT31;68456;51.986;5.692;2023-05-07T15:25:02;23.8;52.1
79059;SHT31;68456;51.986;5.692;2023-05-07T15:27:32;23.8;51.7
79059;SHT31;68456;51.986;5.692;2023-05-07T15:30:03;23.8;50.2
79059;SHT31;68456;51.986;5.692;2023-05-07T15:32:32;23.7;51.8
79059;SHT31;68456;51.986;5.692;2023-05-07T15:35:00;23.7;51.1
79059;SHT31;68456;51.986;5.692;2023-05-07T15:37:30;23.6;51.3
79059;SHT31;68456;51.986;5.692;2023-05-07T15:39:59;23.6;52.0
79059;SHT31;68456;51.986;5.692;2023-05-07T15:42:28;23.5;50.4
79059;SHT31;68456;51.986;5.692;2023-05-07T15:44:57;23.5;51.1
79059;SHT31;68456;51.986;5.692;2023-05-07T15:47:27;23.4;52.0
79059;SHT31;68456;51.986;5.692;2023-05-07T15:49:56;23.4;52.8
79059;SHT31;68456;51.986;5.692;2023-05-07T15:52:24;23.3;53.3
79059;SHT31;68456;51.986;5.692;2023-05-07T15:54:55;23.3;53.5
79059;SHT31;68456;51.986;5.692;2023-05-07T15:57:24;23.2;53.8
79059;SHT31;68456;51.986;5.692;2023-05-07T15:59:55;23.2;54.0
79059;SHT31;68456;51.986;5.692;2023-05-07T16:02:23;23.2;54.2
79059;SHT31;68456;51.986;5.692;2023-05-07T16:04:52;23.1;54.2
79059;SHT31;68456;51.986;5.692;2023-05-07T16:07:20;23.1;54.4
79059;SHT31;68456;51.986;5.692;2023-05-07T16:09:49;23.1;54.4
79059;SHT31;68456;51.986;5.692;2023-05-07T16:12:17;23.0;54.7
79059;SHT31;68456;51.986;5.692;2023-05-07T16:14:46;23.0;55.1
79059;SHT31;68456;51.986;5.692;2023-05-07T16:17:16;23.0;55.0
79059;SHT31;68456;51.986;5.692;2023-05-07T16:19:45;22.9;55.1
79059;SHT31;68456;51.986;5.692;2023-05-07T16:22:14;22.9;55.1
79059;SHT31;68456;51.986;5.692;2023-05-07T16:24:42;22.8;55.0
79059;SHT31;68456;51.986;5.692;2023-05-07T16:27:11;22.8;55.1
79059;SHT31;68456;51.986;5.692;2023-05-07T16:29:40;22.7;55.1
79059;SHT31;68456;51.986;5.692;2023-05-07T16:32:09;22.7;55.5
79059;SHT31;68456;51.986;5.692;2023-05-07T16:34:39;22.6;55.3
79059;SHT31;68456;51.986;5.692;2023-05-07T16:37:08;22.6;55.8
79059;SHT31;68456;51.986;5.692;2023-05-07T16:39:38;22.6;56.7
79059;SHT31;68456;51.986;5.692;2023-05-07T16:42:07;22.5;55.5
79059;SHT31;68456;51.986;5.692;2023-05-07T16:44:35;22.5;56.2
79059;SHT31;68456;51.986;5.692;2023-05-07T16:47:04;22.5;56.0
79059;SHT31;68456;51.986;5.692;2023-05-07T16:49:33;22.4;56.2
79059;SHT31;68456;51.986;5.692;2023-05-07T16:52:01;22.4;56.1
79059;SHT31;68456;51.986;5.692;2023-05-07T16:54:30;22.4;56.0
79059;SHT31;68456;51.986;5.692;2023-05-07T16:56:59;22.3;56.2
79059;SHT31;68456;51.986;5.692;2023-05-07T16:59:28;22.3;56.2
79059;SHT31;68456;51.986;5.692;2023-05-07T17:01:58;22.2;56.0
79059;SHT31;68456;51.986;5.692;2023-05-07T17:04:27;22.2;56.1
79059;SHT31;68456;51.986;5.692;2023-05-07T17:06:58;22.1;56.2
79059;SHT31;68456;51.986;5.692;2023-05-07T17:09:27;22.1;56.2
79059;SHT31;68456;51.986;5.692;2023-05-07T17:11:56;22.1;56.3
79059;SHT31;68456;51.986;5.692;2023-05-07T17:14:24;22.0;56.7
79059;SHT31;68456;51.986;5.692;2023-05-07T17:16:53;22.0;56.6
79059;SHT31;68456;51.986;5.692;2023-05-07T17:19:22;22.0;56.6
79059;SHT31;68456;51.986;5.692;2023-05-07T17:21:53;22.0;56.5
79059;SHT31;68456;51.986;5.692;2023-05-07T17:24:21;21.9;56.8
79059;SHT31;68456;51.986;5.692;2023-05-07T17:26:50;21.9;57.1
79059;SHT31;68456;51.986;5.692;2023-05-07T17:29:18;21.9;57.4
79059;SHT31;68456;51.986;5.692;2023-05-07T17:31:47;21.8;57.5
79059;SHT31;68456;51.986;5.692;2023-05-07T17:34:16;21.8;57.3
79059;SHT31;68456;51.986;5.692;2023-05-07T17:36:44;21.8;57.4
79059;SHT31;68456;51.986;5.692;2023-05-07T17:39:13;21.7;57.4
79059;SHT31;68456;51.986;5.692;2023-05-07T17:41:42;21.7;58.0
79059;SHT31;68456;51.986;5.692;2023-05-07T17:44:10;21.7;57.7
79059;SHT31;68456;51.986;5.692;2023-05-07T17:46:39;21.6;57.8
79059;SHT31;68456;51.986;5.692;2023-05-07T17:49:08;21.6;58.4
79059;SHT31;68456;51.986;5.692;2023-05-07T17:51:36;21.6;58.4
79059;SHT31;68456;51.986;5.692;2023-05-07T17:54:05;21.5;58.4
79059;SHT31;68456;51.986;5.692;2023-05-07T17:56:33;21.5;58.4
79059;SHT31;68456;51.986;5.692;2023-05-07T17:59:02;21.5;58.1
79059;SHT31;68456;51.986;5.692;2023-05-07T18:01:32;21.4;58.7
79059;SHT31;68456;51.986;5.692;2023-05-07T18:04:01;21.4;58.4
79059;SHT31;68456;51.986;5.692;2023-05-07T18:06:30;21.4;58.9
79059;SHT31;68456;51.986;5.692;2023-05-07T18:08:58;21.3;58.1
79059;SHT31;68456;51.986;5.692;2023-05-07T18:11:28;21.3;58.7
79059;SHT31;68456;51.986;5.692;2023-05-07T18:13:58;21.3;58.5
79059;SHT31;68456;51.986;5.692;2023-05-07T18:16:30;21.2;58.5
79059;SHT31;68456;51.986;5.692;2023-05-07T18:18:59;21.2;58.4
79059;SHT31;68456;51.986;5.692;2023-05-07T18:21:27;21.2;58.6
79059;SHT31;68456;51.986;5.692;2023-05-07T18:23:56;21.2;58.6
79059;SHT31;68456;51.986;5.692;2023-05-07T18:26:24;21.2;58.3
79059;SHT31;68456;51.986;5.692;2023-05-07T18:28:53;21.1;58.4
79059;SHT31;68456;51.986;5.692;2023-05-07T18:31:22;21.1;58.7
79059;SHT31;68456;51.986;5.692;2023-05-07T18:33:52;21.1;58.6
79059;SHT31;68456;51.986;5.692;2023-05-07T18:36:21;21.1;59.2
79059;SHT31;68456;51.986;5.692;2023-05-07T18:38:52;21.1;59.8
79059;SHT31;68456;51.986;5.692;2023-05-07T18:41:21;21.1;59.0
79059;SHT31;68456;51.986;5.692;2023-05-07T18:43:49;21.0;59.8
79059;SHT31;68456;51.986;5.692;2023-05-07T18:46:18;21.0;59.2
79059;SHT31;68456;51.986;5.692;2023-05-07T18:48:47;21.0;59.5
79059;SHT31;68456;51.986;5.692;2023-05-07T18:51:16;21.0;59.9
79059;SHT31;68456;51.986;5.692;2023-05-07T18:53:44;21.0;60.2
79059;SHT31;68456;51.986;5.692;2023-05-07T18:56:13;21.0;59.5
79059;SHT31;68456;51.986;5.692;2023-05-07T18:58:41;20.9;60.4
79059;SHT31;68456;51.986;5.692;2023-05-07T19:01:10;20.9;60.6
79059;SHT31;68456;51.986;5.692;2023-05-07T19:03:38;20.9;59.9
79059;SHT31;68456;51.986;5.692;2023-05-07T19:06:09;20.9;60.3
79059;SHT31;68456;51.986;5.692;2023-05-07T19:08:38;20.9;59.6
79059;SHT31;68456;51.986;5.692;2023-05-07T19:11:06;20.8;59.6
79059;SHT31;68456;51.986;5.692;2023-05-07T19:13:35;20.8;59.5
79059;SHT31;68456;51.986;5.692;2023-05-07T19:16:04;20.8;59.7
79059;SHT31;68456;51.986;5.692;2023-05-07T19:18:35;20.8;59.2
79059;SHT31;68456;51.986;5.692;2023-05-07T19:21:05;20.8;59.3
79059;SHT31;68456;51.986;5.692;2023-05-07T19:23:35;20.7;59.4
79059;SHT31;68456;51.986;5.692;2023-05-07T19:26:07;20.7;59.8
79059;SHT31;68456;51.986;5.692;2023-05-07T19:28:37;20.7;59.5
79059;SHT31;68456;51.986;5.692;2023-05-07T19:31:08;20.7;59.5
79059;SHT31;68456;51.986;5.692;2023-05-07T19:33:37;20.7;59.1
79059;SHT31;68456;51.986;5.692;2023-05-07T19:36:07;20.7;59.2
79059;SHT31;68456;51.986;5.692;2023-05-07T19:38:36;20.7;59.2
79059;SHT31;68456;51.986;5.692;2023-05-07T19:41:05;20.6;59.2
79059;SHT31;68456;51.986;5.692;2023-05-07T19:43:34;20.6;59.4
79059;SHT31;68456;51.986;5.692;2023-05-07T19:46:04;20.6;59.4
79059;SHT31;68456;51.986;5.692;2023-05-07T19:48:33;20.6;60.2
79059;SHT31;68456;51.986;5.692;2023-05-07T19:51:02;20.6;59.6
79059;SHT31;68456;51.986;5.692;2023-05-07T19:53:33;20.6;60.2
79059;SHT31;68456;51.986;5.692;2023-05-07T19:56:05;20.6;60.0
79059;SHT31;68456;51.986;5.692;2023-05-07T19:58:34;20.5;61.0
79059;SHT31;68456;51.986;5.692;2023-05-07T20:01:04;20.5;60.2
79059;SHT31;68456;51.986;5.692;2023-05-07T20:03:34;20.5;60.1
79059;SHT31;68456;51.986;5.692;2023-05-07T20:06:03;20.5;60.0
79059;SHT31;68456;51.986;5.692;2023-05-07T20:08:33;20.5;60.3
79059;SHT31;68456;51.986;5.692;2023-05-07T20:11:02;20.5;60.2
79059;SHT31;68456;51.986;5.692;2023-05-07T20:13:31;20.5;60.5
79059;SHT31;68456;51.986;5.692;2023-05-07T20:16:01;20.4;60.4
79059;SHT31;68456;51.986;5.692;2023-05-07T20:18:32;20.4;59.9
79059;SHT31;68456;51.986;5.692;2023-05-07T20:21:01;20.4;60.5
79059;SHT31;68456;51.986;5.692;2023-05-07T20:26:01;20.4;61.1
79059;SHT31;68456;51.986;5.692;2023-05-07T20:28:30;20.4;60.2
79059;SHT31;68456;51.986;5.692;2023-05-07T20:30:59;20.4;60.0
79059;SHT31;68456;51.986;5.692;2023-05-07T20:33:28;20.3;59.8
79059;SHT31;68456;51.986;5.692;2023-05-07T20:35:58;20.3;59.9
79059;SHT31;68456;51.986;5.692;2023-05-07T20:38:27;20.3;60.1
79059;SHT31;68456;51.986;5.692;2023-05-07T20:41:04;20.3;60.1
79059;SHT31;68456;51.986;5.692;2023-05-07T20:43:34;20.3;60.1
79059;SHT31;68456;51.986;5.692;2023-05-07T20:46:03;20.3;60.4
79059;SHT31;68456;51.986;5.692;2023-05-07T20:48:33;20.3;61.0
79059;SHT31;68456;51.986;5.692;2023-05-07T20:51:02;20.3;61.1
79059;SHT31;68456;51.986;5.692;2023-05-07T20:53:32;20.2;60.4
79059;SHT31;68456;51.986;5.692;2023-05-07T20:56:03;20.2;60.6
79059;SHT31;68456;51.986;5.692;2023-05-07T20:58:32;20.2;60.3
79059;SHT31;68456;51.986;5.692;2023-05-07T21:01:03;20.2;60.2
79059;SHT31;68456;51.986;5.692;2023-05-07T21:03:35;20.2;60.8
79059;SHT31;68456;51.986;5.692;2023-05-07T21:06:04;20.2;60.9
79059;SHT31;68456;51.986;5.692;2023-05-07T21:08:32;20.1;60.7
79059;SHT31;68456;51.986;5.692;2023-05-07T21:11:01;20.1;60.5
79059;SHT31;68456;51.986;5.692;2023-05-07T21:13:31;20.1;60.6
79059;SHT31;68456;51.986;5.692;2023-05-07T21:16:00;20.1;60.6
79059;SHT31;68456;51.986;5.692;2023-05-07T21:18:28;20.1;60.4
79059;SHT31;68456;51.986;5.692;2023-05-07T21:20:57;20.0;60.2
79059;SHT31;68456;51.986;5.692;2023-05-07T21:23:26;20.0;60.2
79059;SHT31;68456;51.986;5.692;2023-05-07T21:25:55;20.0;60.2
79059;SHT31;68456;51.986;5.692;2023-05-07T21:28:23;20.0;60.3
79059;SHT31;68456;51.986;5.692;2023-05-07T21:30:53;20.0;60.7
79059;SHT31;68456;51.986;5.692;2023-05-07T21:33:21;20.0;61.2
79059;SHT31;68456;51.986;5.692;2023-05-07T21:35:50;20.0;61.1
79059;SHT31;68456;51.986;5.692;2023-05-07T21:38:19;19.9;61.3
79059;SHT31;68456;51.986;5.692;2023-05-07T21:40:49;19.9;60.8
79059;SHT31;68456;51.986;5.692;2023-05-07T21:43:18;19.9;60.9
79059;SHT31;68456;51.986;5.692;2023-05-07T21:45:46;19.9;61.0
79059;SHT31;68456;51.986;5.692;2023-05-07T21:48:16;19.9;61.0
79059;SHT31;68456;51.986;5.692;2023-05-07T21:50:47;19.9;61.2
79059;SHT31;68456;51.986;5.692;2023-05-07T21:53:16;19.9;61.5
79059;SHT31;68456;51.986;5.692;2023-05-07T21:55:44;19.8;61.1
79059;SHT31;68456;51.986;5.692;2023-05-07T21:58:13;19.8;61.2
79059;SHT31;68456;51.986;5.692;2023-05-07T22:00:41;19.8;61.3
79059;SHT31;68456;51.986;5.692;2023-05-07T22:03:10;19.8;61.1
79059;SHT31;68456;51.986;5.692;2023-05-07T22:05:38;19.8;61.2
79059;SHT31;68456;51.986;5.692;2023-05-07T22:08:07;19.8;61.3
79059;SHT31;68456;51.986;5.692;2023-05-07T22:10:37;19.8;61.2
79059;SHT31;68456;51.986;5.692;2023-05-07T22:13:07;19.8;61.1
79059;SHT31;68456;51.986;5.692;2023-05-07T22:15:36;19.8;61.4
79059;SHT31;68456;51.986;5.692;2023-05-07T22:18:05;19.7;61.5
79059;SHT31;68456;51.986;5.692;2023-05-07T22:20:34;19.7;61.0
79059;SHT31;68456;51.986;5.692;2023-05-07T22:23:03;19.7;61.2
79059;SHT31;68456;51.986;5.692;2023-05-07T22:25:32;19.7;61.2
79059;SHT31;68456;51.986;5.692;2023-05-07T22:28:01;19.7;60.8
79059;SHT31;68456;51.986;5.692;2023-05-07T22:30:31;19.7;61.0
79059;SHT31;68456;51.986;5.692;2023-05-07T22:32:59;19.7;61.2
79059;SHT31;68456;51.986;5.692;2023-05-07T22:35:28;19.6;61.4
79059;SHT31;68456;51.986;5.692;2023-05-07T22:37:57;19.6;62.1
79059;SHT31;68456;51.986;5.692;2023-05-07T22:40:26;19.6;62.6
79059;SHT31;68456;51.986;5.692;2023-05-07T22:42:54;19.6;61.9
79059;SHT31;68456;51.986;5.692;2023-05-07T22:45:23;19.6;61.9
79059;SHT31;68456;51.986;5.692;2023-05-07T22:47:51;19.6;62.0
79059;SHT31;68456;51.986;5.692;2023-05-07T22:50:20;19.6;61.9
79059;SHT31;68456;51.986;5.692;2023-05-07T22:52:51;19.6;61.8
79059;SHT31;68456;51.986;5.692;2023-05-07T22:55:22;19.6;61.8
79059;SHT31;68456;51.986;5.692;2023-05-07T22:57:51;19.5;61.9
79059;SHT31;68456;51.986;5.692;2023-05-07T23:00:19;19.5;62.2
79059;SHT31;68456;51.986;5.692;2023-05-07T23:02:48;19.5;61.7
79059;SHT31;68456;51.986;5.692;2023-05-07T23:05:19;19.5;61.9
79059;SHT31;68456;51.986;5.692;2023-05-07T23:07:48;19.5;62.2
79059;SHT31;68456;51.986;5.692;2023-05-07T23:10:17;19.5;62.1
79059;SHT31;68456;51.986;5.692;2023-05-07T23:12:46;19.5;62.1
79059;SHT31;68456;51.986;5.692;2023-05-07T23:15:17;19.5;62.2
79059;SHT31;68456;51.986;5.692;2023-05-07T23:17:47;19.5;62.3
79059;SHT31;68456;51.986;5.692;2023-05-07T23:20:16;19.5;61.9
79059;SHT31;68456;51.986;5.692;2023-05-07T23:22:44;19.4;61.7
79059;SHT31;68456;51.986;5.692;2023-05-07T23:25:15;19.4;62.2
79059;SHT31;68456;51.986;5.692;2023-05-07T23:27:45;19.4;62.4
79059;SHT31;68456;51.986;5.692;2023-05-07T23:30:15;19.4;61.8
79059;SHT31;68456;51.986;5.692;2023-05-07T23:32:44;19.4;62.1
79059;SHT31;68456;51.986;5.692;2023-05-07T23:35:12;19.4;62.1
79059;SHT31;68456;51.986;5.692;2023-05-07T23:37:41;19.4;62.3
79059;SHT31;68456;51.986;5.692;2023-05-07T23:40:10;19.4;62.1
79059;SHT31;68456;51.986;5.692;2023-05-07T23:42:39;19.4;62.9
79059;SHT31;68456;51.986;5.692;2023-05-07T23:45:08;19.4;62.3
79059;SHT31;68456;51.986;5.692;2023-05-07T23:47:37;19.3;62.2
79059;SHT31;68456;51.986;5.692;2023-05-07T23:50:07;19.3;62.2
79059;SHT31;68456;51.986;5.692;2023-05-07T23:52:36;19.3;62.7
79059;SHT31;68456;51.986;5.692;2023-05-07T23:55:05;19.3;62.5
79059;SHT31;68456;51.986;5.692;2023-05-07T23:57:34;19.3;62.5
